createdAt,value
2022-12-25T00:00:22.419Z,8.55
2022-12-25T00:02:53.056Z,8.54
2022-12-25T00:05:23.707Z,8.53
2022-12-25T00:07:54.809Z,8.53
2022-12-25T00:10:25.422Z,8.53
2022-12-25T00:12:56.237Z,8.53
2022-12-25T00:15:26.695Z,8.52
2022-12-25T00:17:57.237Z,8.50
2022-12-25T00:20:27.731Z,8.49
2022-12-25T00:22:58.181Z,8.49
2022-12-25T00:25:28.640Z,8.54
2022-12-25T00:27:59.109Z,8.58
2022-12-25T00:30:29.634Z,8.61
2022-12-25T00:33:00.057Z,8.63
2022-12-25T00:35:30.593Z,8.63
2022-12-25T00:38:01.033Z,8.59
2022-12-25T00:40:31.515Z,8.55
2022-12-25T00:43:01.982Z,8.52
2022-12-25T00:45:32.479Z,8.49
2022-12-25T00:48:03.154Z,8.44
2022-12-25T00:50:33.979Z,8.38
2022-12-25T00:53:04.399Z,8.34
2022-12-25T00:55:34.824Z,8.30
2022-12-25T00:58:05.307Z,8.26
2022-12-25T01:00:35.835Z,8.23
2022-12-25T01:03:06.613Z,8.26
2022-12-25T01:05:37.165Z,8.26
2022-12-25T01:08:07.940Z,8.25
2022-12-25T01:10:38.525Z,8.23
2022-12-25T01:13:08.971Z,8.19
2022-12-25T01:15:40.546Z,8.15
2022-12-25T01:18:13.006Z,8.13
2022-12-25T01:20:43.650Z,8.11
2022-12-25T01:23:14.335Z,8.08
2022-12-25T01:25:44.878Z,8.05
2022-12-25T01:28:16.584Z,8.02
2022-12-25T01:30:51.674Z,7.98
2022-12-25T01:33:22.104Z,7.97
2022-12-25T01:35:52.596Z,8.00
2022-12-25T01:38:23.167Z,8.01
2022-12-25T01:40:53.682Z,8.03
2022-12-25T01:43:28.110Z,8.04
2022-12-25T01:45:59.035Z,8.04
2022-12-25T01:48:33.064Z,8.05
2022-12-25T01:51:07.353Z,8.04
2022-12-25T01:53:38.003Z,8.03
2022-12-25T01:56:10.272Z,8.03
2022-12-25T01:58:39.267Z,8.03
2022-12-25T02:01:10.853Z,8.01
2022-12-25T02:03:42.868Z,8.00
2022-12-25T02:06:13.398Z,7.99
2022-12-25T02:08:44.713Z,7.99
2022-12-25T02:11:35.271Z,8.06
2022-12-25T02:14:05.885Z,8.11
2022-12-25T02:16:58.347Z,8.12
2022-12-25T02:19:52.601Z,8.15
2022-12-25T02:22:36.292Z,8.17
2022-12-25T02:25:26.647Z,8.17
2022-12-25T02:28:08.942Z,8.13
2022-12-25T02:30:45.332Z,8.07
2022-12-25T02:33:41.784Z,8.02
2022-12-25T02:36:16.607Z,7.96
2022-12-25T02:39:04.517Z,7.90
2022-12-25T02:41:40.189Z,7.84
2022-12-25T02:44:34.069Z,7.80
2022-12-25T02:47:40.032Z,7.82
2022-12-25T02:50:30.225Z,7.82
2022-12-25T02:53:21.184Z,7.81
2022-12-25T02:56:11.852Z,7.80
2022-12-25T02:59:01.473Z,7.79
2022-12-25T03:01:53.602Z,7.77
2022-12-25T03:04:45.886Z,7.74
2022-12-25T03:07:22.156Z,7.70
2022-12-25T03:10:16.543Z,7.65
2022-12-25T03:12:51.985Z,7.58
2022-12-25T03:15:41.489Z,7.54
2022-12-25T03:18:17.153Z,7.52
2022-12-25T03:21:05.167Z,7.55
2022-12-25T03:23:56.265Z,7.55
2022-12-25T03:26:46.350Z,7.56
2022-12-25T03:29:36.772Z,7.58
2022-12-25T03:32:16.120Z,7.58
2022-12-25T03:35:15.796Z,7.56
2022-12-25T03:38:14.076Z,7.54
2022-12-25T03:41:16.058Z,7.49
2022-12-25T03:44:10.716Z,7.44
2022-12-25T03:47:06.863Z,7.38
2022-12-25T03:50:09.098Z,7.33
2022-12-25T03:52:58.805Z,7.29
2022-12-25T03:55:47.171Z,7.25
2022-12-25T03:58:41.047Z,7.23
2022-12-25T04:01:29.591Z,7.26
2022-12-25T04:04:14.268Z,7.29
2022-12-25T04:07:02.413Z,7.32
2022-12-25T04:09:50.549Z,7.34
2022-12-25T04:12:38.485Z,7.35
2022-12-25T04:15:28.820Z,7.35
2022-12-25T04:18:17.303Z,7.33
2022-12-25T04:21:05.277Z,7.30
2022-12-25T04:23:53.784Z,7.25
2022-12-25T04:26:42.189Z,7.19
2022-12-25T04:29:30.684Z,7.12
2022-12-25T04:32:18.773Z,7.02
2022-12-25T04:35:07.314Z,6.95
2022-12-25T04:37:37.854Z,6.94
2022-12-25T04:40:10.714Z,6.92
2022-12-25T04:42:41.264Z,6.91
2022-12-25T04:45:13.496Z,6.92
2022-12-25T04:47:44.058Z,6.92
2022-12-25T04:50:14.557Z,6.92
2022-12-25T04:52:45.055Z,6.92
2022-12-25T04:55:15.491Z,6.90
2022-12-25T04:57:46.179Z,6.87
2022-12-25T05:00:18.360Z,6.83
2022-12-25T05:02:49.014Z,6.78
2022-12-25T05:05:19.743Z,6.74
2022-12-25T05:07:50.210Z,6.70
2022-12-25T05:10:21.211Z,6.65
2022-12-25T05:12:51.813Z,6.61
2022-12-25T05:15:22.288Z,6.59
2022-12-25T05:17:54.294Z,6.66
2022-12-25T05:20:25.417Z,6.70
2022-12-25T05:22:55.841Z,6.74
2022-12-25T05:25:26.512Z,6.78
2022-12-25T05:27:56.987Z,6.80
2022-12-25T05:30:27.944Z,6.81
2022-12-25T05:32:58.390Z,6.82
2022-12-25T05:35:28.864Z,6.84
2022-12-25T05:37:59.566Z,6.86
2022-12-25T05:40:30.032Z,6.87
2022-12-25T05:43:00.542Z,6.87
2022-12-25T05:45:31.983Z,6.86
2022-12-25T05:48:02.617Z,6.84
2022-12-25T05:50:33.070Z,6.80
2022-12-25T05:53:10.683Z,6.78
2022-12-25T05:55:44.029Z,6.78
2022-12-25T05:58:14.838Z,6.77
2022-12-25T06:00:46.093Z,6.76
2022-12-25T06:03:16.749Z,6.74
2022-12-25T06:05:47.278Z,6.73
2022-12-25T06:08:17.761Z,6.72
2022-12-25T06:10:48.643Z,6.70
2022-12-25T06:13:19.074Z,6.69
2022-12-25T06:15:49.681Z,6.66
2022-12-25T06:18:20.280Z,6.62
2022-12-25T06:20:50.771Z,6.59
2022-12-25T06:23:21.236Z,6.56
2022-12-25T06:25:51.710Z,6.52
2022-12-25T06:28:22.356Z,6.47
2022-12-25T06:30:52.835Z,6.44
2022-12-25T06:33:23.390Z,6.47
2022-12-25T06:35:53.949Z,6.47
2022-12-25T06:38:24.930Z,6.47
2022-12-25T06:40:55.378Z,6.50
2022-12-25T06:43:25.829Z,6.49
2022-12-25T06:45:56.342Z,6.48
2022-12-25T06:48:26.862Z,6.46
2022-12-25T06:50:57.354Z,6.44
2022-12-25T06:53:30.180Z,6.41
2022-12-25T06:56:07.868Z,6.37
2022-12-25T06:58:38.400Z,6.34
2022-12-25T07:01:15.612Z,6.31
2022-12-25T07:03:48.613Z,6.28
2022-12-25T07:06:19.131Z,6.26
2022-12-25T07:08:49.638Z,6.23
2022-12-25T07:11:21.025Z,6.21
2022-12-25T07:13:51.535Z,6.26
2022-12-25T07:16:22.243Z,6.29
2022-12-25T07:18:52.778Z,6.32
2022-12-25T07:21:24.168Z,6.35
2022-12-25T07:23:54.782Z,6.35
2022-12-25T07:26:25.214Z,6.35
2022-12-25T07:28:56.271Z,6.34
2022-12-25T07:31:26.770Z,6.32
2022-12-25T07:33:57.323Z,6.31
2022-12-25T07:36:28.262Z,6.28
2022-12-25T07:38:58.750Z,6.26
2022-12-25T07:41:29.322Z,6.22
2022-12-25T07:44:07.221Z,6.20
2022-12-25T07:46:37.655Z,6.18
2022-12-25T07:49:08.205Z,6.18
2022-12-25T07:51:38.676Z,6.20
2022-12-25T07:54:09.576Z,6.29
2022-12-25T07:56:40.034Z,6.35
2022-12-25T07:59:10.482Z,6.42
2022-12-25T08:01:41.091Z,6.48
2022-12-25T08:04:12.695Z,6.53
2022-12-25T08:06:43.188Z,6.57
2022-12-25T08:09:14.516Z,6.59
2022-12-25T08:11:48.704Z,6.60
2022-12-25T08:14:19.165Z,6.63
2022-12-25T08:16:49.680Z,6.64
2022-12-25T08:19:20.569Z,6.67
2022-12-25T08:21:51.110Z,6.68
2022-12-25T08:24:21.875Z,6.69
2022-12-25T08:26:52.438Z,6.69
2022-12-25T08:29:22.855Z,6.71
2022-12-25T08:31:53.434Z,6.72
2022-12-25T08:34:24.008Z,6.75
2022-12-25T08:36:54.606Z,6.85
2022-12-25T08:39:25.730Z,6.92
2022-12-25T08:41:56.374Z,6.97
2022-12-25T08:44:26.840Z,7.03
2022-12-25T08:46:57.332Z,7.08
2022-12-25T08:49:29.203Z,7.10
2022-12-25T08:51:59.926Z,7.14
2022-12-25T08:54:32.479Z,7.19
2022-12-25T08:57:03.270Z,7.24
2022-12-25T08:59:33.737Z,7.29
2022-12-25T09:02:04.380Z,7.34
2022-12-25T09:04:35.307Z,7.40
2022-12-25T09:07:05.867Z,7.42
2022-12-25T09:09:36.312Z,7.43
2022-12-25T09:12:07.087Z,7.45
2022-12-25T09:14:37.661Z,7.50
2022-12-25T09:17:08.105Z,7.61
2022-12-25T09:19:38.544Z,7.71
2022-12-25T09:22:09.003Z,7.79
2022-12-25T09:24:39.968Z,7.87
2022-12-25T09:27:10.539Z,7.93
2022-12-25T09:29:40.990Z,7.97
2022-12-25T09:32:11.590Z,8.00
2022-12-25T09:34:42.041Z,8.04
2022-12-25T09:37:12.490Z,8.06
2022-12-25T09:39:46.309Z,8.10
2022-12-25T09:42:21.393Z,8.14
2022-12-25T09:44:56.427Z,8.16
2022-12-25T09:47:30.242Z,8.19
2022-12-25T09:50:05.293Z,8.23
2022-12-25T09:52:44.614Z,8.30
2022-12-25T09:55:20.522Z,8.34
2022-12-25T09:57:53.899Z,8.43
2022-12-25T10:00:27.063Z,8.57
2022-12-25T10:03:13.565Z,8.70
2022-12-25T10:05:59.933Z,8.80
2022-12-25T10:08:47.959Z,8.89
2022-12-25T10:11:32.746Z,8.97
2022-12-25T10:14:09.729Z,9.06
2022-12-25T10:16:50.800Z,9.13
2022-12-25T10:19:31.705Z,9.19
2022-12-25T10:22:09.189Z,9.25
2022-12-25T10:24:45.193Z,9.30
2022-12-25T10:27:19.653Z,9.35
2022-12-25T10:29:54.864Z,9.40
2022-12-25T10:32:25.521Z,9.45
2022-12-25T10:34:56.344Z,9.49
2022-12-25T10:37:27.616Z,9.52
2022-12-25T10:39:58.410Z,9.54
2022-12-25T10:42:38.510Z,9.58
2022-12-25T10:45:11.393Z,9.61
2022-12-25T10:47:42.944Z,9.65
2022-12-25T10:50:21.686Z,9.69
2022-12-25T10:53:00.591Z,9.74
2022-12-25T10:55:31.320Z,9.77
2022-12-25T10:58:02.935Z,9.82
2022-12-25T11:00:34.749Z,9.87
2022-12-25T11:03:05.311Z,9.99
2022-12-25T11:05:37.115Z,10.09
2022-12-25T11:08:22.156Z,10.20
2022-12-25T11:10:58.490Z,10.32
2022-12-25T11:13:30.942Z,10.44
2022-12-25T11:16:11.142Z,10.56
2022-12-25T11:18:49.434Z,10.67
2022-12-25T11:21:24.929Z,10.77
2022-12-25T11:24:01.413Z,10.90
2022-12-25T11:26:37.324Z,11.05
2022-12-25T11:29:17.132Z,11.17
2022-12-25T11:31:48.555Z,11.29
2022-12-25T11:34:31.688Z,11.39
2022-12-25T11:37:04.256Z,11.50
2022-12-25T11:39:37.140Z,11.60
2022-12-25T11:42:15.170Z,11.72
2022-12-25T11:44:50.690Z,11.82
2022-12-25T11:47:26.258Z,11.89
2022-12-25T11:50:03.425Z,11.92
2022-12-25T11:52:39.502Z,11.98
2022-12-25T11:55:25.083Z,12.02
2022-12-25T11:57:58.982Z,12.08
2022-12-25T12:00:31.366Z,12.12
2022-12-25T12:03:07.892Z,12.17
2022-12-25T12:05:49.711Z,12.25
2022-12-25T12:08:20.255Z,12.37
2022-12-25T12:11:16.921Z,12.47
2022-12-25T12:13:58.288Z,12.58
2022-12-25T12:16:29.288Z,12.68
2022-12-25T12:18:59.876Z,12.77
2022-12-25T12:21:32.150Z,12.86
2022-12-25T12:24:07.928Z,12.94
2022-12-25T12:26:42.513Z,13.02
2022-12-25T12:29:29.467Z,13.09
2022-12-25T12:32:03.964Z,13.16
2022-12-25T12:34:40.410Z,13.20
2022-12-25T12:37:24.792Z,13.22
2022-12-25T12:39:56.731Z,13.19
2022-12-25T12:42:30.222Z,13.16
2022-12-25T12:45:11.159Z,13.15
2022-12-25T12:47:46.540Z,13.14
2022-12-25T12:50:36.028Z,13.16
2022-12-25T12:53:28.470Z,13.19
2022-12-25T12:56:09.635Z,13.22
2022-12-25T12:58:46.312Z,13.19
2022-12-25T13:01:34.121Z,13.21
2022-12-25T13:04:24.447Z,13.25
2022-12-25T13:07:04.725Z,13.31
2022-12-25T13:09:54.093Z,13.39
2022-12-25T13:12:26.138Z,13.46
2022-12-25T13:14:56.632Z,13.51
2022-12-25T13:17:28.635Z,13.47
2022-12-25T13:19:59.111Z,13.37
2022-12-25T13:22:33.922Z,13.22
2022-12-25T13:25:07.786Z,13.07
2022-12-25T13:27:38.649Z,12.93
2022-12-25T13:30:20.689Z,12.77
2022-12-25T13:32:51.353Z,12.63
2022-12-25T13:35:24.048Z,12.49
2022-12-25T13:37:56.213Z,12.34
2022-12-25T13:40:28.942Z,12.20
2022-12-25T13:43:02.311Z,12.09
2022-12-25T13:45:35.062Z,12.05
2022-12-25T13:48:17.225Z,12.07
2022-12-25T13:50:56.865Z,12.06
2022-12-25T13:53:27.406Z,12.03
2022-12-25T13:55:59.547Z,11.98
2022-12-25T13:58:34.795Z,11.90
2022-12-25T14:01:06.324Z,11.83
2022-12-25T14:03:41.015Z,11.75
2022-12-25T14:06:20.808Z,11.66
2022-12-25T14:08:52.564Z,11.57
2022-12-25T14:11:25.439Z,11.48
2022-12-25T14:14:01.286Z,11.45
2022-12-25T14:16:32.311Z,11.41
2022-12-25T14:19:04.715Z,11.37
2022-12-25T14:21:38.396Z,11.34
2022-12-25T14:24:16.417Z,11.28
2022-12-25T14:26:46.902Z,11.25
2022-12-25T14:29:25.044Z,11.22
2022-12-25T14:32:00.574Z,11.19
2022-12-25T14:34:33.081Z,11.14
2022-12-25T14:37:04.792Z,11.08
2022-12-25T14:39:37.714Z,11.03
2022-12-25T14:42:20.320Z,10.96
2022-12-25T14:45:07.453Z,10.90
2022-12-25T14:47:51.991Z,10.83
2022-12-25T14:50:30.680Z,10.79
2022-12-25T14:53:01.567Z,10.74
2022-12-25T14:55:32.710Z,10.68
2022-12-25T14:58:05.979Z,10.63
2022-12-25T15:00:38.776Z,10.57
2022-12-25T15:03:20.981Z,10.50
2022-12-25T15:06:01.316Z,10.43
2022-12-25T15:08:34.228Z,10.38
2022-12-25T15:11:04.851Z,10.33
2022-12-25T15:13:35.605Z,10.30
2022-12-25T15:16:13.764Z,10.33
2022-12-25T15:18:47.139Z,10.34
2022-12-25T15:21:22.107Z,10.34
2022-12-25T15:23:53.088Z,10.33
2022-12-25T15:26:23.578Z,10.31
2022-12-25T15:28:54.052Z,10.29
2022-12-25T15:31:27.066Z,10.28
2022-12-25T15:33:59.155Z,10.28
2022-12-25T15:36:30.067Z,10.26
2022-12-25T15:39:00.524Z,10.23
2022-12-25T15:41:50.964Z,10.20
2022-12-25T15:44:21.836Z,10.16
2022-12-25T15:46:52.502Z,10.13
2022-12-25T15:49:23.201Z,10.11
2022-12-25T15:51:53.666Z,10.07
2022-12-25T15:54:24.223Z,10.03
2022-12-25T15:56:58.271Z,9.99
2022-12-25T15:59:29.076Z,9.96
2022-12-25T16:02:02.597Z,9.93
2022-12-25T16:04:33.304Z,9.89
2022-12-25T16:07:03.945Z,9.86
2022-12-25T16:09:34.466Z,9.82
2022-12-25T16:12:04.965Z,9.78
2022-12-25T16:14:35.509Z,9.74
2022-12-25T16:17:06.417Z,9.77
2022-12-25T16:19:36.959Z,9.76
2022-12-25T16:22:13.943Z,9.76
2022-12-25T16:24:44.365Z,9.76
2022-12-25T16:27:14.860Z,9.75
2022-12-25T16:29:45.440Z,9.75
2022-12-25T16:32:17.284Z,9.73
2022-12-25T16:34:49.409Z,9.73
2022-12-25T16:37:20.227Z,9.72
2022-12-25T16:39:50.657Z,9.69
2022-12-25T16:42:21.183Z,9.67
2022-12-25T16:44:51.820Z,9.63
2022-12-25T16:47:22.292Z,9.60
2022-12-25T16:49:52.721Z,9.57
2022-12-25T16:52:23.159Z,9.54
2022-12-25T16:54:53.620Z,9.51
2022-12-25T16:57:24.056Z,9.48
2022-12-25T16:59:54.982Z,9.45
2022-12-25T17:02:25.625Z,9.40
2022-12-25T17:04:56.217Z,9.37
2022-12-25T17:07:26.676Z,9.41
2022-12-25T17:09:58.121Z,9.43
2022-12-25T17:12:28.640Z,9.45
2022-12-25T17:14:59.106Z,9.48
2022-12-25T17:17:29.942Z,9.49
2022-12-25T17:20:00.426Z,9.49
2022-12-25T17:22:30.901Z,9.49
2022-12-25T17:25:01.423Z,9.49
2022-12-25T17:27:31.928Z,9.47
2022-12-25T17:30:02.379Z,9.46
2022-12-25T17:32:32.909Z,9.44
2022-12-25T17:35:04.030Z,9.43
2022-12-25T17:37:35.847Z,9.39
2022-12-25T17:40:07.741Z,9.37
2022-12-25T17:42:38.180Z,9.33
2022-12-25T17:45:11.140Z,9.30
2022-12-25T17:47:41.579Z,9.27
2022-12-25T17:50:12.331Z,9.23
2022-12-25T17:52:42.743Z,9.21
2022-12-25T17:55:13.389Z,9.19
2022-12-25T17:57:43.896Z,9.17
2022-12-25T18:00:16.063Z,9.22
2022-12-25T18:02:47.350Z,9.25
2022-12-25T18:05:18.235Z,9.27
2022-12-25T18:07:48.824Z,9.27
2022-12-25T18:10:19.680Z,9.28
2022-12-25T18:12:50.212Z,9.29
2022-12-25T18:15:20.897Z,9.29
2022-12-25T18:17:51.364Z,9.28
2022-12-25T18:20:22.145Z,9.25
2022-12-25T18:22:52.577Z,9.22
2022-12-25T18:25:23.073Z,9.18
2022-12-25T18:27:55.114Z,9.15
2022-12-25T18:30:25.561Z,9.12
2022-12-25T18:32:56.391Z,9.09
2022-12-25T18:35:29.921Z,9.06
2022-12-25T18:38:00.715Z,9.04
2022-12-25T18:40:31.750Z,9.01
2022-12-25T18:43:03.679Z,8.99
2022-12-25T18:45:34.618Z,9.03
2022-12-25T18:48:06.350Z,9.05
2022-12-25T18:50:38.188Z,9.07
2022-12-25T18:53:09.064Z,9.10
2022-12-25T18:55:42.630Z,9.11
2022-12-25T18:58:13.096Z,9.12
2022-12-25T19:00:43.572Z,9.12
2022-12-25T19:03:14.280Z,9.12
2022-12-25T19:05:44.782Z,9.10
2022-12-25T19:08:15.527Z,9.09
2022-12-25T19:10:46.391Z,9.06
2022-12-25T19:13:16.932Z,9.03
2022-12-25T19:15:47.461Z,9.00
2022-12-25T19:18:17.997Z,8.96
2022-12-25T19:20:48.438Z,8.94
2022-12-25T19:23:18.836Z,8.91
2022-12-25T19:25:49.749Z,8.89
2022-12-25T19:28:20.258Z,8.87
2022-12-25T19:30:52.776Z,8.87
2022-12-25T19:33:23.834Z,8.92
2022-12-25T19:35:54.362Z,8.95
2022-12-25T19:38:24.824Z,8.97
2022-12-25T19:41:01.526Z,8.97
2022-12-25T19:43:33.938Z,8.97
2022-12-25T19:46:05.832Z,8.99
2022-12-25T19:48:37.341Z,8.99
2022-12-25T19:51:17.367Z,8.99
2022-12-25T19:53:48.257Z,8.97
2022-12-25T19:56:19.506Z,8.93
2022-12-25T19:58:49.995Z,8.87
2022-12-25T20:01:23.136Z,8.83
2022-12-25T20:03:53.838Z,8.80
2022-12-25T20:06:26.595Z,8.78
2022-12-25T20:08:58.843Z,8.76
2022-12-25T20:11:29.073Z,8.73
2022-12-25T20:14:00.124Z,8.70
2022-12-25T20:16:31.108Z,8.68
2022-12-25T20:19:01.671Z,8.73
2022-12-25T20:21:32.168Z,8.76
2022-12-25T20:24:02.888Z,8.79
2022-12-25T20:26:33.934Z,8.84
2022-12-25T20:29:04.902Z,8.86
2022-12-25T20:31:36.444Z,8.89
2022-12-25T20:34:12.191Z,8.90
2022-12-25T20:36:42.908Z,8.92
2022-12-25T20:39:15.281Z,8.92
2022-12-25T20:41:47.774Z,8.92
2022-12-25T20:44:18.296Z,8.90
2022-12-25T20:46:48.764Z,8.89
2022-12-25T20:49:19.255Z,8.85
2022-12-25T20:51:49.681Z,8.83
2022-12-25T20:54:20.235Z,8.79
2022-12-25T20:56:51.423Z,8.73
2022-12-25T20:59:21.902Z,8.69
2022-12-25T21:01:54.385Z,8.66
2022-12-25T21:04:24.965Z,8.71
2022-12-25T21:06:55.519Z,8.73
2022-12-25T21:09:26.051Z,8.77
2022-12-25T21:11:56.502Z,8.80
2022-12-25T21:14:29.676Z,8.83
2022-12-25T21:17:00.292Z,8.84
2022-12-25T21:19:30.899Z,8.85
2022-12-25T21:22:01.405Z,8.85
2022-12-25T21:24:31.835Z,8.83
2022-12-25T21:27:02.416Z,8.81
2022-12-25T21:29:32.884Z,8.79
2022-12-25T21:32:20.792Z,8.76
2022-12-25T21:34:51.246Z,8.72
2022-12-25T21:37:21.726Z,8.69
2022-12-25T21:39:53.676Z,8.66
2022-12-25T21:42:24.845Z,8.64
2022-12-25T21:44:55.264Z,8.62
2022-12-25T21:47:25.812Z,8.66
2022-12-25T21:50:39.115Z,8.68
2022-12-25T21:53:09.970Z,8.72
2022-12-25T21:55:40.524Z,8.74
2022-12-25T21:58:11.121Z,8.76
2022-12-25T22:00:41.572Z,8.79
2022-12-25T22:03:12.068Z,8.80
2022-12-25T22:06:00.303Z,8.81
2022-12-25T22:08:33.484Z,8.82
2022-12-25T22:11:26.803Z,8.83
2022-12-25T22:14:14.899Z,8.84
2022-12-25T22:17:03.186Z,8.83
2022-12-25T22:19:43.198Z,8.81
2022-12-25T22:22:14.183Z,8.78
2022-12-25T22:24:45.145Z,8.76
2022-12-25T22:27:16.366Z,8.80
2022-12-25T22:29:47.652Z,8.82
2022-12-25T22:32:19.362Z,8.85
2022-12-25T22:34:49.847Z,8.90
2022-12-25T22:37:21.205Z,8.91
2022-12-25T22:39:51.944Z,8.91
2022-12-25T22:42:22.416Z,8.90
2022-12-25T22:44:52.873Z,8.89
2022-12-25T22:47:23.486Z,8.90
2022-12-25T22:49:53.968Z,8.88
2022-12-25T22:52:24.843Z,8.87
2022-12-25T22:54:55.352Z,8.85
2022-12-25T22:57:26.111Z,8.83
2022-12-25T22:59:56.742Z,8.82
2022-12-25T23:02:27.467Z,8.81
2022-12-25T23:04:58.310Z,8.80
2022-12-25T23:07:28.746Z,8.85
2022-12-25T23:09:59.216Z,8.87
2022-12-25T23:12:47.803Z,8.91
2022-12-25T23:15:18.727Z,8.94
2022-12-25T23:18:05.704Z,8.94
2022-12-25T23:20:54.495Z,8.95
2022-12-25T23:23:42.687Z,8.96
2022-12-25T23:26:14.372Z,8.96
2022-12-25T23:29:02.935Z,8.95
2022-12-25T23:31:36.093Z,8.95
2022-12-25T23:34:07.542Z,8.95
2022-12-25T23:36:38.165Z,8.95
2022-12-25T23:39:10.456Z,8.96
2022-12-25T23:41:42.901Z,8.97
2022-12-25T23:44:13.882Z,9.03
2022-12-25T23:46:53.332Z,9.07
2022-12-25T23:49:25.776Z,9.11
2022-12-25T23:51:57.145Z,9.16
2022-12-25T23:54:31.195Z,9.18
2022-12-25T23:57:02.204Z,9.21
2022-12-25T23:59:33.321Z,9.23
